Chadstone Weather > Observations for 06/10/20

Select Day:



Observations
Time Temp Hum DP Wind Gust Dir Rain >9am Press
C % C kph kph mm hPa
00:00 10.2 93 9.1 4.0 9.7 S 8.7 1032.9
00:10 10.2 93 9.1 4.8 12.2 SSE 8.7 1032.8
00:20 10.2 93 9.1 3.4 8.6 SSE 8.7 1032.7
00:30 10.3 94 9.4 3.2 9.7 SSE 8.7 1032.4
00:40 10.3 94 9.4 1.8 8.6 SSE 8.7 1032.2
00:50 10.3 94 9.4 2.8 7.2 S 8.7 1032.2
01:00 10.3 94 9.4 5.3 11.2 S 8.7 1031.8
01:10 10.3 94 9.4 5.2 12.2 SSE 8.7 1031.7
01:20 10.3 94 9.4 4.7 11.2 SSE 8.7 1031.6
01:30 10.3 94 9.4 4.0 12.2 SSE 8.7 1031.6
01:40 10.3 94 9.4 6.6 14.8 SSE 8.7 1031.3
01:50 10.3 94 9.4 4.8 12.2 SE 8.7 1031.3
02:00 10.3 94 9.4 6.1 14.8 WSW 8.7 1031.3
02:10 10.3 94 9.4 6.1 9.7 W 8.7 1031.3
02:20 10.3 94 9.4 6.1 9.7 W 8.7 1031.5
02:30 10.3 94 9.4 6.1 9.7 W 8.7 1031.4
02:40 10.3 94 9.4 6.1 9.7 W 8.7 1031.1
02:50 10.2 90 8.6 5.4 14.8 SSE 8.7 1030.5
03:00 10.1 88 8.2 6.4 15.8 SSE 8.7 1030.7
03:10 10.1 87 8.0 5.0 15.8 ENE 8.7 1030.8
03:20 10.2 86 8.0 5.7 14.8 S 8.7 1030.7
03:30 10.2 85 7.8 6.3 18.4 SSE 8.7 1030.8
03:40 10.2 85 7.8 3.6 6.1 S 8.7 1030.6
03:50 10.3 84 7.7 4.2 11.2 ESE 8.7 1030.7
04:00 10.3 84 7.7 2.5 6.1 N 8.7 1030.7
04:10 10.3 84 7.7 2.5 6.1 N 8.7 1030.7
04:20 10.3 84 7.7 2.5 6.1 N 8.7 1030.5
04:30 10.3 84 7.7 2.5 6.1 N 8.7 1030.1
04:40 10.3 84 7.7 2.5 6.1 N 8.7 1030.1
04:50 10.3 84 7.7 2.5 6.1 N 8.7 1030.3
05:00 10.3 84 7.7 2.5 6.1 N 8.7 1030.0
05:10 10.3 84 7.7 2.5 6.1 N 8.7 1030.1
05:20 10.3 84 7.7 2.5 6.1 N 8.7 1030.5
05:30 10.3 84 7.7 2.5 6.1 N 8.7 1030.5
05:40 10.4 85 8.0 8.6 18.4 N 8.7 1030.4
05:50 10.4 85 8.0 8.6 18.4 N 8.7 1030.4
06:00 10.4 85 8.0 8.6 18.4 N 8.7 1030.4
06:10 10.4 85 8.0 8.6 18.4 N 8.7 1030.4
06:20 10.4 85 8.0 8.6 18.4 N 8.7 1030.4
06:30 10.4 85 8.0 8.6 18.4 N 8.7 1030.5
06:40 10.4 85 8.0 8.6 18.4 N 8.7 1030.4
06:50 10.4 85 8.0 8.6 18.4 N 8.7 1030.4
07:00 10.4 85 8.0 8.6 18.4 N 8.7 1030.1
07:10 10.4 85 8.0 8.6 18.4 N 8.7 1030.6
07:20 10.4 85 8.0 8.6 18.4 N 8.7 1030.8
07:30 10.4 72 5.6 7.2 11.2 SE 8.7 1030.8
07:40 10.4 73 5.8 6.9 18.4 SSE 8.7 1030.6
07:50 10.5 72 5.7 9.3 19.4 SSE 8.7 1030.6
08:00 10.5 70 5.3 11.6 28.1 SSE 8.7 1031.1
08:10 10.6 69 5.2 7.8 22.0 S 8.7 1031.0
08:20 10.6 68 4.9 11.8 25.6 SE 8.7 1031.3
08:30 10.7 69 5.2 11.4 22.0 SE 8.7 1031.1
08:40 11.0 67 5.1 10.2 19.4 SE 8.7 1031.6
08:50 11.0 66 4.9 13.0 30.6 SSE 8.7 1031.5
09:00 11.0 67 5.1 11.7 31.7 SSE 8.7 1031.5
09:10 11.1 67 5.2 14.2 31.7 SE 8.7 1031.7
09:20 11.2 67 5.3 13.5 28.1 SSE 8.7 1031.8
09:30 11.4 67 5.5 11.9 29.5 SSE 8.7 1032.0
09:40 11.6 67 5.7 12.4 29.5 SSE 8.7 1032.1
09:50 11.9 68 6.2 11.5 24.5 SSE 8.7 1032.6
10:00 11.8 68 6.1 11.6 25.6 SSE 0.0 1032.7
10:10 11.8 69 6.3 11.7 22.0 SSE 0.0 1032.3
10:20 11.8 69 6.3 10.2 25.6 SSE 0.0 1032.2
10:30 12.0 66 5.8 12.2 22.0 SE 0.0 1032.1
10:40 12.2 66 6.0 11.0 24.5 SE 0.0 1032.4
10:50 12.1 66 5.9 12.0 23.4 SSW 0.0 1032.3
11:00 12.2 66 6.0 8.1 19.4 SSW 0.0 1032.0
11:10 12.3 66 6.1 7.6 19.4 SE 0.0 1032.3
11:20 12.3 66 6.1 8.6 24.5 SSE 0.0 1031.6
11:30 12.6 67 6.6 9.8 22.0 S 0.0 1031.5
11:40 12.6 66 6.4 14.0 27.0 SSE 0.0 1031.2
11:50 12.6 67 6.6 8.3 23.4 S 0.0 1031.2
12:00 12.6 67 6.6 8.9 25.6 SSE 0.0 1030.8
12:10 12.7 67 6.7 7.0 19.4 SSW 0.0 1030.8
12:20 12.8 66 6.6 8.0 18.4 SE 0.0 1030.9
12:30 12.8 66 6.6 9.0 20.9 SSE 0.0 1031.6
12:40 12.8 67 6.8 9.1 22.0 SE 0.0 1031.4
12:50 12.8 67 6.8 8.7 23.4 S 0.0 1031.2
13:00 12.9 68 7.1 4.9 17.3 S 0.0 1031.8
13:10 13.0 68 7.2 5.3 14.8 SSE 0.0 1031.3
13:20 12.9 69 7.4 4.9 13.3 SSE 0.0 1031.0
13:30 12.9 70 7.6 6.2 13.3 WSW 0.0 1031.0
13:40 12.9 71 7.8 5.1 11.2 S 0.0 1031.1
13:50 12.8 71 7.7 3.0 9.7 S 0.0 1031.0
14:00 12.6 70 7.3 4.2 13.3 SSE 0.0 1031.1
14:10 12.5 71 7.4 4.9 12.2 S 0.0 1031.0
14:20 12.6 71 7.5 2.9 7.2 SSW 0.0 1030.9
14:30 12.5 72 7.6 3.4 9.7 SW 0.0 1030.8
14:40 12.3 74 7.8 7.2 20.9 SSE 0.0 1031.0
14:50 12.0 75 7.7 4.9 14.8 S 0.0 1030.9
15:00 11.8 79 8.3 5.7 19.4 SSE 0.0 1030.7
15:10 11.6 82 8.6 4.7 15.8 SSE 0.0 1030.5
15:20 11.3 83 8.5 4.0 15.8 SSW 0.0 1030.2
15:30 11.5 84 8.9 3.6 13.3 SSE 0.0 1030.6
15:40 11.5 83 8.7 2.0 8.6 S 0.0 1030.8
15:50 11.7 83 8.9 3.0 11.2 SSE 0.0 1030.6
16:00 11.6 83 8.8 4.0 11.2 S 0.0 1030.3
16:10 11.5 84 8.9 3.4 15.8 S 0.0 1030.1
16:20 11.6 84 9.0 4.5 18.4 SSE 0.0 1030.2
16:30 11.6 85 9.2 4.0 13.3 SSE 0.0 1030.4
16:40 11.5 86 9.2 2.4 6.1 S 0.0 1030.2
16:50 11.4 87 9.3 3.0 8.6 S 0.0 1030.2
17:00 11.3 89 9.6 1.4 5.0 SSW 0.0 1029.5
17:10 11.3 90 9.7 2.3 9.7 SSE 0.0 1029.8
17:20 11.2 92 10.0 1.7 7.2 S 0.0 1029.6
17:30 11.2 93 10.1 1.8 7.2 SSW 0.3 1029.7
17:40 11.3 93 10.2 2.0 8.6 S 0.3 1029.5
17:50 11.2 94 10.3 2.4 9.7 SSW 0.3 1029.7
18:00 11.2 94 10.3 3.2 9.7 SSW 0.3 1030.2
18:10 11.2 95 10.4 2.0 8.6 SSE 0.6 1030.5
18:20 11.3 95 10.5 1.6 7.2 SSW 0.6 1030.3
18:30 11.3 96 10.7 2.3 9.7 S 0.6 1029.7
18:40 11.3 96 10.7 0.6 5.0 S 0.9 1029.4
18:50 11.3 96 10.7 1.8 6.1 SSW 0.9 1030.1
19:00 11.4 97 10.9 2.0 11.2 S 0.9 1029.6
19:10 11.4 97 10.9 1.5 6.1 WSW 0.9 1029.6
19:20 11.4 97 10.9 1.1 5.0 SW 0.9 1029.6
19:30 11.3 98 11.0 1.0 5.0 SSW 1.2 1029.3
19:40 11.3 98 11.0 0.9 5.0 SSW 1.2 1029.7
19:50 11.4 98 11.1 0.2 3.6 SW 1.2 1029.6
20:00 11.4 98 11.1 0.6 3.6 SSW 1.2 1029.6
20:10 11.5 98 11.2 0.5 3.6 SSW 1.5 1029.5
20:20 11.5 98 11.2 1.2 6.1 S 1.5 1029.7
20:30 11.5 98 11.2 0.9 6.1 SW 1.5 1029.5
20:40 11.6 98 11.3 0.6 3.6 SSW 1.5 1029.5
20:50 11.6 98 11.3 1.9 7.2 S 1.5 1029.4
21:00 11.6 98 11.3 1.9 7.2 SW 1.5 1029.3
21:10 11.6 98 11.3 0.8 6.1 SSW 1.5 1029.2
21:20 11.7 98 11.4 0.6 9.7 SSW 1.5 1029.5
21:30 11.7 98 11.4 0.3 3.6 S 1.5 1029.4
21:40 11.8 98 11.5 0.5 3.6 SSW 1.5 1029.6
21:50 11.8 98 11.5 0.4 2.5 SSW 1.5 1029.7
22:00 11.8 98 11.5 0.5 2.5 SW 1.5 1029.8
22:10 11.9 98 11.6 0.3 2.5 S 1.5 1029.7
22:20 12.0 97 11.5 0.0 2.5 SSE 1.5 1029.5
22:30 12.0 97 11.5 0.0 2.5 SSE 1.5 1029.8
22:40 12.0 97 11.5 0.0 1.1 SW 1.5 1029.3
22:50 12.0 97 11.5 0.0 0.0 N 1.5 1029.5
23:00 12.1 97 11.6 0.0 0.0 N 1.5 1029.4
23:10 12.1 97 11.6 0.0 2.5 SW 1.5 1029.4
23:20 12.1 97 11.6 0.0 2.5 SW 1.5 1029.1
23:30 12.2 97 11.7 0.0 2.5 SW 1.5 1028.9
23:40 12.3 97 11.8 0.0 0.0 N 1.5 1028.7
23:50 12.2 97 11.7 0.0 0.0 N 1.5 1028.8